createdAt,value
2018-07-17T00:02:25.028Z,4.20
2018-07-17T00:04:53.452Z,4.60
2018-07-17T00:07:21.849Z,4.03
2018-07-17T00:09:50.540Z,4.67
2018-07-17T00:12:18.888Z,4.20
2018-07-17T00:14:47.337Z,3.73
2018-07-17T00:17:15.680Z,4.03
2018-07-17T00:19:44.016Z,4.23
2018-07-17T00:22:12.375Z,4.13
2018-07-17T00:24:40.813Z,4.27
2018-07-17T00:27:09.208Z,3.90
2018-07-17T00:29:37.590Z,3.90
2018-07-17T00:32:06.014Z,5.30
2018-07-17T00:34:34.407Z,4.47
2018-07-17T00:37:03.136Z,3.70
2018-07-17T00:39:31.240Z,3.47
2018-07-17T00:41:59.766Z,5.80
2018-07-17T00:44:28.196Z,7.13
2018-07-17T00:46:56.594Z,5.30
2018-07-17T00:49:25.021Z,4.50
2018-07-17T00:51:53.440Z,6.33
2018-07-17T00:54:21.820Z,5.80
2018-07-17T00:56:50.186Z,4.90
2018-07-17T00:59:18.578Z,4.07
2018-07-17T01:01:52.355Z,4.97
2018-07-17T01:04:26.003Z,4.07
2018-07-17T01:06:59.842Z,4.83
2018-07-17T01:09:33.419Z,7.27
2018-07-17T01:12:07.142Z,6.80
2018-07-17T01:14:39.800Z,4.70
2018-07-17T01:17:08.182Z,4.57
2018-07-17T01:19:36.612Z,4.17
2018-07-17T01:22:05.037Z,4.87
2018-07-17T01:24:33.393Z,5.23
2018-07-17T01:27:01.756Z,5.10
2018-07-17T01:29:30.090Z,4.87
2018-07-17T01:31:58.527Z,5.23
2018-07-17T01:34:26.978Z,3.47
2018-07-17T01:36:55.610Z,4.70
2018-07-17T01:39:24.033Z,5.53
2018-07-17T01:41:52.448Z,4.20
2018-07-17T01:44:20.872Z,3.90
2018-07-17T01:46:49.268Z,4.77
2018-07-17T01:49:17.620Z,4.43
2018-07-17T01:51:46.072Z,6.30
2018-07-17T01:54:14.428Z,4.77
2018-07-17T01:56:42.832Z,4.77
2018-07-17T01:59:11.208Z,6.63
2018-07-17T02:01:39.708Z,4.57
2018-07-17T02:04:08.198Z,3.93
2018-07-17T02:06:36.624Z,6.87
2018-07-17T02:09:06.136Z,5.00
2018-07-17T02:11:34.510Z,5.57
2018-07-17T02:14:03.016Z,4.67
2018-07-17T02:16:31.481Z,4.17
2018-07-17T02:18:59.871Z,4.47
2018-07-17T02:21:28.284Z,4.63
2018-07-17T02:23:56.722Z,3.80
2018-07-17T02:26:25.048Z,4.10
2018-07-17T02:28:55.956Z,5.13
2018-07-17T02:31:24.317Z,4.13
2018-07-17T02:33:52.657Z,4.00
2018-07-17T02:36:21.164Z,4.53
2018-07-17T02:38:49.654Z,5.73
2018-07-17T02:41:18.021Z,5.50
2018-07-17T02:43:46.433Z,5.23
2018-07-17T02:46:14.828Z,4.27
2018-07-17T02:48:43.253Z,5.77
2018-07-17T02:51:11.613Z,6.67
2018-07-17T02:53:39.936Z,6.80
2018-07-17T02:56:10.335Z,6.07
2018-07-17T02:58:38.982Z,5.73
2018-07-17T03:01:07.388Z,5.73
2018-07-17T03:03:35.771Z,5.40
2018-07-17T03:06:04.160Z,6.07
2018-07-17T03:08:32.550Z,5.33
2018-07-17T03:11:01.227Z,5.33
2018-07-17T03:13:29.539Z,7.60
2018-07-17T03:15:57.899Z,5.73
2018-07-17T03:18:26.342Z,5.27
2018-07-17T03:20:54.749Z,6.93
2018-07-17T03:23:23.161Z,6.73
2018-07-17T03:25:51.553Z,6.93
2018-07-17T03:28:19.944Z,7.53
2018-07-17T03:30:48.327Z,6.70
2018-07-17T03:33:16.710Z,6.77
2018-07-17T03:35:45.179Z,7.47
2018-07-17T03:38:13.640Z,7.73
2018-07-17T03:40:41.985Z,7.37
2018-07-17T03:43:10.383Z,7.60
2018-07-17T03:45:38.748Z,10.87
2018-07-17T03:48:07.142Z,7.13
2018-07-17T03:50:35.588Z,7.63
2018-07-17T03:53:03.994Z,7.37
2018-07-17T03:55:32.031Z,7.17
2018-07-17T03:58:00.492Z,6.67
2018-07-17T04:00:28.920Z,5.77
2018-07-17T04:02:57.392Z,8.00
2018-07-17T04:05:25.765Z,8.80
2018-07-17T04:07:54.170Z,7.13
2018-07-17T04:10:22.664Z,7.73
2018-07-17T04:12:51.020Z,7.87
2018-07-17T04:15:19.477Z,8.27
2018-07-17T04:17:47.936Z,8.47
2018-07-17T04:20:16.517Z,9.50
2018-07-17T04:22:44.708Z,8.47
2018-07-17T04:25:13.118Z,8.40
2018-07-17T04:27:41.681Z,10.30
2018-07-17T04:30:10.065Z,6.80
2018-07-17T04:32:38.533Z,7.50
2018-07-17T04:35:07.713Z,6.63
2018-07-17T04:37:36.153Z,6.13
2018-07-17T04:40:09.356Z,7.37
2018-07-17T04:42:37.883Z,7.73
2018-07-17T04:45:06.260Z,8.70
2018-07-17T04:47:34.741Z,9.93
2018-07-17T04:50:03.201Z,10.03
2018-07-17T04:52:31.560Z,10.13
2018-07-17T04:54:59.965Z,10.60
2018-07-17T04:57:28.509Z,10.50
2018-07-17T04:59:57.374Z,10.37
2018-07-17T05:02:25.715Z,10.40
2018-07-17T05:04:54.104Z,10.37
2018-07-17T05:07:22.486Z,13.97
2018-07-17T05:09:51.076Z,13.00
2018-07-17T05:12:19.578Z,12.73
2018-07-17T05:14:48.081Z,14.90
2018-07-17T05:17:16.581Z,12.53
2018-07-17T05:19:45.019Z,13.77
2018-07-17T05:22:13.605Z,12.33
2018-07-17T05:24:42.045Z,12.30
2018-07-17T05:27:10.446Z,13.97
2018-07-17T05:29:39.056Z,10.20
2018-07-17T05:32:07.607Z,13.13
2018-07-17T05:34:35.906Z,13.40
2018-07-17T05:37:04.546Z,14.53
2018-07-17T05:39:33.008Z,12.47
2018-07-17T05:42:01.376Z,15.87
2018-07-17T05:44:33.237Z,13.40
2018-07-17T05:47:01.658Z,14.20
2018-07-17T05:49:30.111Z,13.47
2018-07-17T05:51:58.577Z,15.67
2018-07-17T05:54:26.936Z,14.00
2018-07-17T05:56:55.352Z,10.03
2018-07-17T05:59:37.210Z,13.20
2018-07-17T06:02:05.594Z,13.10
2018-07-17T06:04:33.968Z,11.27
2018-07-17T06:07:02.225Z,13.93
2018-07-17T06:09:34.345Z,13.70
2018-07-17T06:12:12.364Z,9.40
2018-07-17T06:14:40.852Z,9.80
2018-07-17T06:17:09.262Z,12.30
2018-07-17T06:19:41.913Z,9.37
2018-07-17T06:22:10.398Z,11.33
2018-07-17T06:24:38.756Z,11.70
2018-07-17T06:27:07.100Z,8.70
2018-07-17T06:29:35.221Z,10.07
2018-07-17T06:32:03.628Z,7.93
2018-07-17T06:34:32.079Z,12.53
2018-07-17T06:37:00.415Z,7.17
2018-07-17T06:39:28.832Z,10.13
2018-07-17T06:41:57.301Z,9.83
2018-07-17T06:44:25.679Z,10.83
2018-07-17T06:46:54.018Z,7.60
2018-07-17T06:49:22.363Z,9.20
2018-07-17T06:51:50.752Z,7.43
2018-07-17T06:54:29.358Z,7.07
2018-07-17T06:56:57.745Z,5.53
2018-07-17T06:59:26.117Z,8.23
2018-07-17T07:01:54.538Z,6.80
2018-07-17T07:04:22.976Z,4.90
2018-07-17T07:06:52.484Z,5.70
2018-07-17T07:09:20.902Z,5.10
2018-07-17T07:11:55.471Z,7.83
2018-07-17T07:14:27.183Z,5.03
2018-07-17T07:16:55.597Z,4.77
2018-07-17T07:19:34.435Z,5.33
2018-07-17T07:22:02.824Z,4.53
2018-07-17T07:24:31.196Z,4.40
2018-07-17T07:26:59.693Z,4.17
2018-07-17T07:29:28.068Z,4.33
2018-07-17T07:31:56.522Z,3.80
2018-07-17T07:34:24.961Z,3.97
2018-07-17T07:36:53.468Z,5.43
2018-07-17T07:39:21.846Z,5.07
2018-07-17T07:41:50.298Z,4.37
2018-07-17T07:44:18.800Z,4.33
2018-07-17T07:46:47.260Z,5.13
2018-07-17T07:49:16.338Z,4.10
2018-07-17T07:51:44.880Z,4.00
2018-07-17T07:54:13.376Z,3.70
2018-07-17T07:56:41.821Z,4.20
2018-07-17T07:59:10.307Z,4.07
2018-07-17T08:01:38.697Z,4.33
2018-07-17T08:04:07.250Z,3.80
2018-07-17T08:06:35.464Z,3.90
2018-07-17T08:09:04.636Z,3.50
2018-07-17T08:11:33.413Z,4.20
2018-07-17T08:14:01.757Z,3.30
2018-07-17T08:16:30.480Z,3.77
2018-07-17T08:18:59.508Z,5.93
2018-07-17T08:21:28.104Z,3.87
2018-07-17T08:23:56.599Z,3.97
2018-07-17T08:26:25.056Z,3.40
2018-07-17T08:28:53.488Z,5.27
2018-07-17T08:31:22.746Z,3.17
2018-07-17T08:33:51.136Z,4.23
2018-07-17T08:36:19.552Z,3.23
2018-07-17T08:38:48.053Z,3.43
2018-07-17T08:41:16.521Z,3.10
2018-07-17T08:43:55.260Z,3.00
2018-07-17T08:46:23.835Z,7.03
2018-07-17T08:48:52.245Z,2.77
2018-07-17T08:51:22.042Z,3.50
2018-07-17T08:53:53.352Z,3.50
2018-07-17T08:56:23.624Z,3.50
2018-07-17T08:58:59.057Z,3.67
2018-07-17T09:01:33.891Z,3.67
2018-07-17T09:04:19.633Z,3.07
2018-07-17T09:06:48.791Z,3.03
2018-07-17T09:09:18.344Z,2.90
2018-07-17T09:11:46.772Z,3.00
2018-07-17T09:14:15.176Z,2.93
2018-07-17T09:16:43.587Z,3.53
2018-07-17T09:19:12.010Z,3.87
2018-07-17T09:21:40.477Z,3.23
2018-07-17T09:24:08.764Z,3.90
2018-07-17T09:26:37.140Z,3.37
2018-07-17T09:29:05.709Z,3.10
2018-07-17T09:31:34.060Z,4.23
2018-07-17T09:34:02.388Z,2.90
2018-07-17T09:36:31.204Z,2.90
2018-07-17T09:38:59.789Z,3.40
2018-07-17T09:41:28.301Z,3.20
2018-07-17T09:43:57.606Z,2.70
2018-07-17T09:46:26.098Z,2.97
2018-07-17T09:48:54.591Z,6.37
2018-07-17T09:51:22.963Z,3.10
2018-07-17T09:53:51.312Z,3.47
2018-07-17T09:56:19.761Z,4.10
2018-07-17T09:58:48.162Z,3.33
2018-07-17T10:01:21.937Z,2.77
2018-07-17T10:03:50.432Z,3.17
2018-07-17T10:06:24.379Z,3.20
2018-07-17T10:08:54.556Z,3.60
2018-07-17T10:11:23.655Z,6.20
2018-07-17T10:13:53.371Z,3.00
2018-07-17T10:16:21.828Z,3.93
2018-07-17T10:18:50.636Z,3.20
2018-07-17T10:21:18.987Z,3.40
2018-07-17T10:23:47.577Z,3.20
2018-07-17T10:26:16.780Z,3.07
2018-07-17T10:28:45.347Z,3.37
2018-07-17T10:31:14.321Z,3.00
2018-07-17T10:33:42.816Z,2.90
2018-07-17T10:36:11.202Z,3.00
2018-07-17T10:38:39.795Z,2.90
2018-07-17T10:41:08.476Z,3.90
2018-07-17T10:43:36.624Z,3.10
2018-07-17T10:46:05.044Z,2.47
2018-07-17T10:48:33.861Z,2.87
2018-07-17T10:51:02.099Z,2.80
2018-07-17T10:53:30.614Z,3.17
2018-07-17T10:55:59.174Z,2.90
2018-07-17T10:58:27.744Z,3.33
2018-07-17T11:00:56.353Z,2.50
2018-07-17T11:03:24.846Z,4.33
2018-07-17T11:05:54.026Z,5.73
2018-07-17T11:08:22.590Z,2.80
2018-07-17T11:10:51.019Z,3.30
2018-07-17T11:13:19.589Z,3.00
2018-07-17T11:15:48.032Z,3.37
2018-07-17T11:18:16.650Z,2.90
2018-07-17T11:20:45.345Z,2.67
2018-07-17T11:23:13.895Z,3.40
2018-07-17T11:25:42.437Z,3.23
2018-07-17T11:28:13.011Z,4.43
2018-07-17T11:30:41.447Z,2.80
2018-07-17T11:33:09.902Z,3.23
2018-07-17T11:35:38.362Z,3.03
2018-07-17T11:38:06.829Z,3.57
2018-07-17T11:40:35.322Z,2.73
2018-07-17T11:43:03.962Z,3.50
2018-07-17T11:45:32.502Z,3.07
2018-07-17T11:48:00.941Z,2.97
2018-07-17T11:50:29.317Z,9.43
2018-07-17T11:52:57.764Z,3.33
2018-07-17T11:55:26.172Z,3.50
2018-07-17T11:57:54.609Z,3.63
2018-07-17T12:00:23.053Z,6.63
2018-07-17T12:02:51.457Z,3.07
2018-07-17T12:05:19.981Z,4.47
2018-07-17T12:07:48.415Z,5.37
2018-07-17T12:10:19.076Z,3.83
2018-07-17T12:12:47.615Z,3.60
2018-07-17T12:15:15.913Z,3.83
2018-07-17T12:17:44.310Z,3.50
2018-07-17T12:20:12.863Z,3.30
2018-07-17T12:22:41.265Z,3.50
2018-07-17T12:25:09.688Z,3.57
2018-07-17T12:27:38.096Z,3.60
2018-07-17T12:30:06.650Z,3.10
2018-07-17T12:32:35.177Z,3.87
2018-07-17T12:35:03.854Z,3.20
2018-07-17T12:37:32.343Z,3.53
2018-07-17T12:40:01.118Z,3.67
2018-07-17T12:42:29.588Z,4.20
2018-07-17T12:44:58.052Z,4.13
2018-07-17T12:47:26.410Z,3.30
2018-07-17T12:49:54.897Z,3.57
2018-07-17T12:52:23.722Z,3.50
2018-07-17T12:54:52.065Z,3.33
2018-07-17T12:57:20.441Z,5.17
2018-07-17T12:59:48.861Z,3.00
2018-07-17T13:02:17.208Z,4.50
2018-07-17T13:04:45.632Z,3.00
2018-07-17T13:07:13.984Z,3.33
2018-07-17T13:09:42.943Z,4.33
2018-07-17T13:12:11.533Z,3.40
2018-07-17T13:14:39.954Z,5.20
2018-07-17T13:17:08.789Z,2.90
2018-07-17T13:19:37.101Z,3.60
2018-07-17T13:22:06.257Z,3.67
2018-07-17T13:24:35.020Z,3.30
2018-07-17T13:27:03.544Z,3.07
2018-07-17T13:29:31.987Z,2.97
2018-07-17T13:32:00.428Z,3.13
2018-07-17T13:34:28.932Z,3.50
2018-07-17T13:36:57.374Z,3.60
2018-07-17T13:39:25.822Z,3.50
2018-07-17T13:41:54.327Z,3.23
2018-07-17T13:44:22.811Z,3.83
2018-07-17T13:46:51.239Z,3.40
2018-07-17T13:49:19.611Z,3.60
2018-07-17T13:51:48.104Z,3.47
2018-07-17T13:54:16.589Z,4.47
2018-07-17T13:56:44.970Z,3.40
2018-07-17T13:59:13.394Z,3.07
2018-07-17T14:01:41.928Z,3.37
2018-07-17T14:04:10.332Z,3.60
2018-07-17T14:06:39.246Z,3.43
2018-07-17T14:09:08.701Z,3.10
2018-07-17T14:11:37.036Z,4.33
2018-07-17T14:14:05.466Z,2.80
2018-07-17T14:16:33.838Z,2.90
2018-07-17T14:19:01.927Z,3.10
2018-07-17T14:21:30.395Z,3.40
2018-07-17T14:23:58.765Z,3.83
2018-07-17T14:26:27.234Z,3.57
2018-07-17T14:28:55.767Z,5.00
2018-07-17T14:31:24.219Z,3.63
2018-07-17T14:33:52.588Z,3.67
2018-07-17T14:36:20.946Z,3.10
2018-07-17T14:38:49.378Z,3.33
2018-07-17T14:41:17.840Z,3.70
2018-07-17T14:43:47.284Z,3.90
2018-07-17T14:46:15.650Z,3.90
2018-07-17T14:48:44.000Z,3.00
2018-07-17T14:51:13.873Z,3.40
2018-07-17T14:53:42.277Z,2.97
2018-07-17T14:56:10.844Z,2.97
2018-07-17T14:58:39.248Z,4.13
2018-07-17T15:01:07.782Z,2.70
2018-07-17T15:03:36.173Z,3.10
2018-07-17T15:06:04.822Z,4.37
2018-07-17T15:08:37.350Z,4.17
2018-07-17T15:11:05.999Z,3.20
2018-07-17T15:13:34.512Z,2.83
2018-07-17T15:16:02.953Z,2.90
2018-07-17T15:18:31.477Z,3.17
2018-07-17T15:21:01.993Z,3.23
2018-07-17T15:23:32.433Z,3.33
2018-07-17T15:26:00.873Z,3.07
2018-07-17T15:28:29.344Z,2.93
2018-07-17T15:30:57.854Z,3.97
2018-07-17T15:33:26.365Z,2.90
2018-07-17T15:35:54.781Z,3.43
2018-07-17T15:38:23.322Z,3.47
2018-07-17T15:40:51.909Z,2.90
2018-07-17T15:43:20.337Z,4.10
2018-07-17T15:45:48.901Z,2.77
2018-07-17T15:48:17.362Z,2.50
2018-07-17T15:51:28.127Z,2.67
2018-07-17T15:53:56.586Z,3.33
2018-07-17T15:56:25.093Z,2.60
2018-07-17T15:58:56.609Z,3.53
2018-07-17T16:01:25.275Z,3.03
2018-07-17T16:04:01.220Z,2.60
2018-07-17T16:06:32.637Z,2.87
2018-07-17T16:09:01.168Z,2.63
2018-07-17T16:11:31.052Z,3.10
2018-07-17T16:14:28.164Z,3.60
2018-07-17T16:17:04.663Z,3.23
2018-07-17T16:19:44.602Z,4.73
2018-07-17T16:22:18.789Z,3.40
2018-07-17T16:24:49.993Z,3.30
2018-07-17T16:27:21.319Z,6.80
2018-07-17T16:29:52.215Z,5.13
2018-07-17T16:32:22.292Z,3.97
2018-07-17T16:35:14.033Z,5.00
2018-07-17T16:37:42.705Z,3.70
2018-07-17T16:41:06.365Z,5.33
2018-07-17T16:43:37.583Z,3.10
2018-07-17T16:46:06.194Z,4.37
2018-07-17T16:48:34.707Z,4.50
2018-07-17T16:51:02.788Z,3.97
2018-07-17T16:53:31.229Z,3.87
2018-07-17T16:55:59.684Z,3.90
2018-07-17T16:58:28.083Z,3.50
2018-07-17T17:00:56.544Z,3.73
2018-07-17T17:03:24.942Z,5.33
2018-07-17T17:05:57.569Z,3.30
2018-07-17T17:08:26.333Z,5.67
2018-07-17T17:10:54.685Z,5.03
2018-07-17T17:13:23.089Z,4.63
2018-07-17T17:15:51.540Z,5.40
2018-07-17T17:18:19.887Z,5.47
2018-07-17T17:20:48.272Z,5.23
2018-07-17T17:23:16.768Z,6.37
2018-07-17T17:25:45.255Z,8.93
2018-07-17T17:28:13.693Z,5.53
2018-07-17T17:30:42.256Z,5.70
2018-07-17T17:33:20.772Z,5.83
2018-07-17T17:35:51.725Z,5.83
2018-07-17T17:41:07.728Z,5.77
2018-07-17T17:43:44.899Z,6.23
2018-07-17T17:46:15.226Z,5.50
2018-07-17T17:48:49.652Z,6.20
2018-07-17T17:51:33.161Z,6.37
2018-07-17T17:54:03.845Z,7.03
2018-07-17T17:56:51.128Z,5.50
